createdAt,value
2022-09-02T00:01:52.481Z,4.18
2022-09-02T00:05:54.528Z,4.18
2022-09-02T00:09:57.046Z,3.95
2022-09-02T00:14:02.920Z,4.32
2022-09-02T00:18:07.013Z,3.85
2022-09-02T00:22:16.366Z,3.90
2022-09-02T00:26:19.554Z,4.00
2022-09-02T00:30:21.639Z,3.67
2022-09-02T00:34:24.555Z,3.15
2022-09-02T00:38:26.737Z,3.83
2022-09-02T00:42:29.198Z,4.05
2022-09-02T00:46:33.400Z,3.90
2022-09-02T00:50:37.325Z,3.42
2022-09-02T00:54:45.704Z,4.25
2022-09-02T00:58:51.240Z,4.25
2022-09-02T01:02:57.398Z,3.38
2022-09-02T01:06:59.970Z,2.55
2022-09-02T01:11:06.441Z,3.47
2022-09-02T01:15:12.044Z,3.10
2022-09-02T01:19:25.461Z,3.58
2022-09-02T01:23:32.381Z,3.80
2022-09-02T01:27:37.435Z,2.88
2022-09-02T01:31:39.908Z,2.45
2022-09-02T01:35:42.983Z,2.95
2022-09-02T01:39:49.946Z,3.05
2022-09-02T01:43:51.995Z,2.97
2022-09-02T01:47:54.485Z,2.60
2022-09-02T01:51:56.807Z,2.90
2022-09-02T01:56:00.071Z,2.58
2022-09-02T02:00:07.717Z,2.67
2022-09-02T02:04:16.296Z,3.22
2022-09-02T02:08:20.083Z,3.20
2022-09-02T02:12:22.804Z,3.40
2022-09-02T02:16:25.603Z,2.80
2022-09-02T02:20:28.024Z,3.05
2022-09-02T02:24:30.186Z,3.05
2022-09-02T02:28:32.489Z,3.13
2022-09-02T02:32:39.579Z,2.72
2022-09-02T02:36:43.119Z,3.05
2022-09-02T02:40:45.600Z,2.90
2022-09-02T02:44:48.034Z,3.00
2022-09-02T02:48:50.196Z,2.55
2022-09-02T02:52:55.046Z,3.55
2022-09-02T02:56:59.041Z,2.90
2022-09-02T03:01:02.064Z,3.38
2022-09-02T03:05:07.903Z,2.90
2022-09-02T03:09:10.718Z,2.97
2022-09-02T03:13:15.459Z,3.10
2022-09-02T03:17:20.147Z,3.08
2022-09-02T03:21:23.226Z,2.83
2022-09-02T03:25:32.242Z,2.90
2022-09-02T03:29:41.078Z,3.42
2022-09-02T03:33:44.107Z,2.78
2022-09-02T03:37:47.874Z,2.90
2022-09-02T03:41:50.491Z,3.00
2022-09-02T03:45:53.237Z,2.47
2022-09-02T03:49:57.402Z,3.03
2022-09-02T03:54:00.318Z,3.03
2022-09-02T03:58:07.857Z,2.83
2022-09-02T04:02:12.790Z,2.95
2022-09-02T04:06:20.145Z,3.58
2022-09-02T04:10:22.870Z,3.67
2022-09-02T04:14:25.752Z,3.60
2022-09-02T04:18:28.337Z,4.20
2022-09-02T04:22:35.419Z,4.05
2022-09-02T04:26:44.979Z,4.30
2022-09-02T04:30:49.822Z,4.50
2022-09-02T04:34:52.164Z,4.03
2022-09-02T04:38:56.233Z,5.10
2022-09-02T04:43:01.116Z,3.80
2022-09-02T04:47:03.967Z,3.63
2022-09-02T04:51:10.003Z,3.70
2022-09-02T04:55:13.751Z,3.53
2022-09-02T04:59:16.254Z,3.15
2022-09-02T05:03:28.590Z,3.40
2022-09-02T05:07:31.730Z,3.13
2022-09-02T05:11:35.345Z,2.83
2022-09-02T05:15:41.039Z,3.50
2022-09-02T05:19:46.008Z,2.93
2022-09-02T05:23:54.646Z,2.92
2022-09-02T05:27:58.599Z,3.35
2022-09-02T05:32:00.987Z,2.40
2022-09-02T05:36:05.150Z,2.30
2022-09-02T05:40:08.258Z,2.22
2022-09-02T05:44:13.411Z,2.08
2022-09-02T05:48:34.170Z,1.85
2022-09-02T05:52:36.624Z,1.55
2022-09-02T05:56:45.077Z,1.92
2022-09-02T06:00:49.800Z,1.90
2022-09-02T06:04:54.842Z,1.60
2022-09-02T06:09:01.017Z,1.73
2022-09-02T06:13:03.572Z,1.23
2022-09-02T06:17:09.433Z,1.58
2022-09-02T06:21:21.099Z,2.47
2022-09-02T06:25:26.831Z,1.80
2022-09-02T06:29:31.447Z,1.27
2022-09-02T06:33:35.463Z,1.45
2022-09-02T06:37:37.646Z,1.30
2022-09-02T06:41:41.998Z,1.63
2022-09-02T06:45:47.167Z,1.83
2022-09-02T06:49:49.877Z,1.00
2022-09-02T06:53:54.405Z,0.77
2022-09-02T06:57:58.955Z,1.00
2022-09-02T07:02:01.245Z,1.02
2022-09-02T07:06:09.791Z,0.90
2022-09-02T07:10:16.098Z,1.13
2022-09-02T07:14:25.183Z,0.77
2022-09-02T07:18:29.574Z,1.00
2022-09-02T07:22:32.306Z,1.40
2022-09-02T07:26:37.678Z,0.75
2022-09-02T07:30:43.411Z,0.77
2022-09-02T07:34:49.521Z,0.80
2022-09-02T07:38:53.848Z,0.63
2022-09-02T07:47:06.778Z,1.00
2022-09-02T07:51:12.958Z,0.80
2022-09-02T07:55:16.157Z,0.98
2022-09-02T07:59:21.882Z,0.70
2022-09-02T08:03:27.699Z,0.77
2022-09-02T08:07:32.126Z,0.70
2022-09-02T08:11:37.407Z,0.77
2022-09-02T08:15:40.186Z,0.65
2022-09-02T08:19:42.445Z,1.88
2022-09-02T08:23:48.140Z,0.63
2022-09-02T08:27:50.497Z,0.70
2022-09-02T08:31:54.133Z,0.60
2022-09-02T08:35:56.867Z,0.50
2022-09-02T08:39:59.218Z,0.68
2022-09-02T08:44:02.562Z,0.50
2022-09-02T08:48:45.379Z,0.85
2022-09-02T08:53:04.930Z,0.50
2022-09-02T08:57:08.000Z,0.50
2022-09-02T09:01:29.231Z,0.52
2022-09-02T09:06:00.892Z,0.73
2022-09-02T09:10:37.303Z,0.43
2022-09-02T09:14:51.354Z,1.02
2022-09-02T09:19:11.789Z,0.50
2022-09-02T09:23:20.062Z,0.30
2022-09-02T09:27:24.651Z,0.40
2022-09-02T09:31:32.626Z,0.30
2022-09-02T09:35:50.801Z,0.30
2022-09-02T09:39:53.797Z,0.90
2022-09-02T09:43:57.032Z,0.40
2022-09-02T09:48:17.209Z,0.45
2022-09-02T09:52:28.550Z,0.40
2022-09-02T09:56:37.311Z,0.70
2022-09-02T10:00:41.569Z,0.50
2022-09-02T10:04:44.189Z,0.68
2022-09-02T10:09:25.115Z,0.68
2022-09-02T10:13:32.520Z,0.82
2022-09-02T10:18:14.857Z,0.50
2022-09-02T10:22:48.565Z,0.80
2022-09-02T10:27:02.609Z,0.50
2022-09-02T10:31:38.966Z,0.40
2022-09-02T10:35:48.911Z,0.35
2022-09-02T10:40:17.418Z,0.32
2022-09-02T10:44:28.198Z,0.37
2022-09-02T10:49:04.761Z,0.13
2022-09-02T10:53:23.376Z,0.45
2022-09-02T10:57:31.579Z,0.30
2022-09-02T11:02:12.706Z,0.47
2022-09-02T11:06:35.303Z,0.60
2022-09-02T11:11:01.798Z,0.80
2022-09-02T11:15:10.739Z,0.40
2022-09-02T11:19:35.751Z,0.50
2022-09-02T11:24:04.366Z,0.30
2022-09-02T11:28:29.437Z,0.35
2022-09-02T11:32:39.442Z,0.40
2022-09-02T11:36:43.343Z,0.68
2022-09-02T11:41:32.889Z,0.47
2022-09-02T11:45:44.204Z,0.30
2022-09-02T11:50:16.858Z,0.40
2022-09-02T11:54:21.164Z,0.30
2022-09-02T11:58:34.947Z,0.40
2022-09-02T12:02:45.925Z,0.32
2022-09-02T12:07:08.651Z,0.30
2022-09-02T12:11:41.818Z,0.35
2022-09-02T12:15:45.619Z,0.60
2022-09-02T12:19:50.105Z,0.40
2022-09-02T12:23:55.211Z,0.65
2022-09-02T12:28:27.458Z,0.40
2022-09-02T12:32:45.391Z,0.30
2022-09-02T12:36:56.229Z,0.43
2022-09-02T12:41:07.889Z,0.40
2022-09-02T12:45:26.833Z,0.55
2022-09-02T12:49:33.802Z,0.50
2022-09-02T12:53:42.307Z,0.40
2022-09-02T12:57:47.536Z,0.40
2022-09-02T13:02:04.870Z,0.30
2022-09-02T13:06:26.739Z,0.40
2022-09-02T13:10:40.763Z,0.40
2022-09-02T13:15:07.440Z,0.50
2022-09-02T13:19:47.176Z,0.43
2022-09-02T13:24:02.433Z,0.40
2022-09-02T13:28:17.344Z,0.50
2022-09-02T13:32:19.402Z,0.30
2022-09-02T13:36:28.367Z,0.30
2022-09-02T13:44:36.227Z,0.73
2022-09-02T13:48:40.577Z,0.30
2022-09-02T13:53:34.599Z,0.50
2022-09-02T13:57:12.131Z,0.30
2022-09-02T14:01:35.827Z,0.38
2022-09-02T14:05:45.344Z,0.28
2022-09-02T14:09:50.954Z,0.40
2022-09-02T14:13:54.901Z,0.30
2022-09-02T14:18:18.375Z,0.40
2022-09-02T14:22:28.925Z,0.40
2022-09-02T14:26:38.507Z,0.40
2022-09-02T14:30:41.628Z,0.25
2022-09-02T14:34:45.914Z,0.45
2022-09-02T14:38:47.921Z,0.32
2022-09-02T14:42:57.551Z,0.50
2022-09-02T14:47:15.402Z,0.63
2022-09-02T14:51:19.319Z,0.77
2022-09-02T14:55:41.286Z,0.20
2022-09-02T14:59:43.615Z,1.15
2022-09-02T15:03:47.439Z,1.55
2022-09-02T15:07:49.705Z,0.77
2022-09-02T15:11:53.927Z,0.30
2022-09-02T15:15:57.344Z,0.60
2022-09-02T15:19:59.442Z,0.55
2022-09-02T15:24:03.058Z,0.30
2022-09-02T15:28:05.275Z,0.40
2022-09-02T15:32:07.706Z,0.45
2022-09-02T15:36:13.148Z,0.35
2022-09-02T15:40:16.047Z,0.50
2022-09-02T15:44:18.485Z,0.45
2022-09-02T15:48:20.847Z,0.60
2022-09-02T15:52:23.793Z,0.30
2022-09-02T15:56:28.065Z,0.30
2022-09-02T16:00:32.158Z,0.30
2022-09-02T16:04:38.623Z,0.80
2022-09-02T16:08:40.883Z,0.52
2022-09-02T16:12:43.082Z,1.33
2022-09-02T16:16:45.692Z,1.40
2022-09-02T16:20:48.240Z,1.15
2022-09-02T16:24:51.119Z,0.57
2022-09-02T16:29:00.588Z,0.55
2022-09-02T16:33:02.687Z,0.80
2022-09-02T16:37:06.467Z,0.90
2022-09-02T16:41:43.909Z,0.68
2022-09-02T16:45:46.582Z,1.35
2022-09-02T16:49:48.672Z,2.55
2022-09-02T16:53:56.279Z,3.38
2022-09-02T16:58:03.185Z,3.65
2022-09-02T17:02:05.821Z,3.50
2022-09-02T17:06:09.007Z,3.47
2022-09-02T17:10:11.666Z,3.10
2022-09-02T17:14:16.907Z,3.10
2022-09-02T17:18:19.212Z,2.70
2022-09-02T17:22:21.281Z,2.88
2022-09-02T17:26:26.648Z,3.42
2022-09-02T17:30:28.987Z,3.83
2022-09-02T17:34:33.456Z,3.00
2022-09-02T17:38:35.552Z,3.17
2022-09-02T17:42:38.610Z,2.65
2022-09-02T17:46:42.108Z,2.17
2022-09-02T17:50:44.380Z,2.33
2022-09-02T17:54:49.284Z,2.63
2022-09-02T17:59:19.506Z,2.33
2022-09-02T18:03:39.523Z,2.55
2022-09-02T18:07:49.856Z,2.13
2022-09-02T18:11:53.114Z,2.33
2022-09-02T18:15:59.005Z,2.22
2022-09-02T18:20:16.602Z,2.08
2022-09-02T18:24:35.480Z,2.10
2022-09-02T18:28:58.828Z,3.90
2022-09-02T18:33:17.098Z,3.20
2022-09-02T18:37:40.209Z,2.88
2022-09-02T18:42:01.207Z,2.80
2022-09-02T18:46:05.451Z,3.10
2022-09-02T18:50:11.290Z,2.45
2022-09-02T18:54:30.866Z,3.13
2022-09-02T18:59:14.929Z,2.72
2022-09-02T19:03:17.466Z,2.65
2022-09-02T19:07:39.722Z,2.58
2022-09-02T19:11:42.240Z,2.40
2022-09-02T19:15:44.701Z,2.30
2022-09-02T19:19:46.743Z,2.47
2022-09-02T19:23:49.487Z,2.20
2022-09-02T19:27:55.151Z,2.35
2022-09-02T19:31:57.501Z,2.60
2022-09-02T19:35:59.797Z,2.85
2022-09-02T19:40:08.067Z,3.15
2022-09-02T19:44:12.684Z,2.40
2022-09-02T19:48:15.630Z,2.85
2022-09-02T19:52:21.049Z,2.45
2022-09-02T19:56:23.396Z,3.13
2022-09-02T20:00:25.643Z,3.20
2022-09-02T20:04:29.965Z,3.63
2022-09-02T20:08:32.654Z,3.97
2022-09-02T20:12:36.557Z,3.28
2022-09-02T20:16:38.805Z,4.05
2022-09-02T20:20:49.659Z,2.90
2022-09-02T20:24:51.595Z,3.22
2022-09-02T20:28:59.597Z,4.25
2022-09-02T20:33:16.747Z,4.03
2022-09-02T20:37:21.732Z,4.13
2022-09-02T20:41:34.049Z,4.32
2022-09-02T20:45:52.744Z,3.95
2022-09-02T20:50:18.463Z,4.05
2022-09-02T20:54:31.358Z,4.40
2022-09-02T20:58:50.915Z,4.43
2022-09-02T21:03:05.533Z,4.45
2022-09-02T21:07:26.688Z,4.75
2022-09-02T21:11:38.142Z,5.00
2022-09-02T21:15:55.771Z,5.65
2022-09-02T21:20:09.872Z,5.75
2022-09-02T21:24:37.632Z,5.53
2022-09-02T21:28:50.122Z,5.85
2022-09-02T21:32:57.658Z,5.20
2022-09-02T21:37:00.535Z,5.90
2022-09-02T21:41:20.610Z,5.57
2022-09-02T21:45:44.423Z,5.00
2022-09-02T21:50:24.024Z,5.40
2022-09-02T21:54:44.566Z,5.32
2022-09-02T21:58:49.522Z,6.28
2022-09-02T22:03:16.394Z,6.07
2022-09-02T22:07:26.428Z,5.65
2022-09-02T22:11:32.076Z,6.05
2022-09-02T22:16:01.516Z,7.57
2022-09-02T22:20:07.586Z,8.85
2022-09-02T22:24:10.167Z,8.82
2022-09-02T22:28:21.143Z,8.63
2022-09-02T22:37:34.338Z,9.70
2022-09-02T22:41:45.604Z,8.98
2022-09-02T22:46:24.851Z,8.60
2022-09-02T22:50:52.367Z,9.20
2022-09-02T22:54:56.862Z,8.57
2022-09-02T22:59:18.242Z,8.18
2022-09-02T23:03:55.210Z,9.10
2022-09-02T23:07:57.480Z,10.30
2022-09-02T23:12:13.267Z,9.45
2022-09-02T23:16:40.243Z,9.35
2022-09-02T23:20:51.443Z,13.98
2022-09-02T23:25:24.575Z,17.45
2022-09-02T23:29:29.772Z,16.38
2022-09-02T23:33:53.173Z,15.73
2022-09-02T23:38:16.619Z,16.13
2022-09-02T23:42:19.272Z,19.73
2022-09-02T23:46:52.034Z,16.35
2022-09-02T23:51:07.128Z,14.30
2022-09-02T23:55:09.524Z,12.18
2022-09-02T23:59:35.087Z,10.77
